Decoded Metar for KCRS (CORSICANA in TX, USA) (IATA:CRS) | Meteo·Mobile Aviation Weather
aviador You're here:

KCRS Decoded Metar

CORSICANA in TX, USA
Report Time2018-08-14 10:53:00
UTC Time2018-08-14 11:03:14
Flight Rules vfr VFR
Wind190° at 07 kt
W.Decomp.*RWY 20: 6.7 kt HW 1.9 kt LCW
RWY 14: 5.0 kt HW 4.9 kt RCW
W.Rank190° ranks 4
Current wind is below 190° avg. (9.2)
Visibility9999 m
Phenomena:N/A
Clouds:Few 018 Hf
Expected CloudBase > 800 ft AGL from Temp-Dew spread
CeilingNone
Temp24°C (ISA +10)
Dew Point22°C (89% RH)
QNH1015 hPa
Density Alt1,864 ft
Elevation436 ft
Report Wrong Elevation
Raw Report
KCRS 141053Z AUTO 19007KT 9SM FEW018 24/22 A2997 RMK AO2 SLP143
T02440222=

Extra information for KCRS:More info

Metar Taf Metar & Taf Last 4 Metars F.Rules Stats Wind Profile Meteogram Temp Stats Airport Information Weather charts Add Link Nearby VenuesMetar ALERT Operation Metar Decoded Social comments

AIRNAV info for KCRS